sensor_id;sensor_type;location;lat;lon;timestamp;temperature;humidity
40738;DHT22;54759;48.094;-1.628;2023-02-20T00:01:28;21.10;52.50
40738;DHT22;54759;48.094;-1.628;2023-02-20T00:04:30;20.80;52.20
40738;DHT22;54759;48.094;-1.628;2023-02-20T00:07:32;20.60;52.30
40738;DHT22;54759;48.094;-1.628;2023-02-20T00:10:33;20.90;52.00
40738;DHT22;54759;48.094;-1.628;2023-02-20T00:13:35;21.50;52.70
40738;DHT22;54759;48.094;-1.628;2023-02-20T00:16:36;21.00;52.50
40738;DHT22;54759;48.094;-1.628;2023-02-20T00:19:37;20.80;52.30
40738;DHT22;54759;48.094;-1.628;2023-02-20T00:22:39;20.80;52.40
40738;DHT22;54759;48.094;-1.628;2023-02-20T00:25:40;20.60;52.30
40738;DHT22;54759;48.094;-1.628;2023-02-20T00:28:42;20.60;52.20
40738;DHT22;54759;48.094;-1.628;2023-02-20T00:31:48;20.70;52.30
40738;DHT22;54759;48.094;-1.628;2023-02-20T00:34:50;21.00;52.40
40738;DHT22;54759;48.094;-1.628;2023-02-20T00:37:51;20.70;52.40
40738;DHT22;54759;48.094;-1.628;2023-02-20T00:40:53;20.90;52.20
40738;DHT22;54759;48.094;-1.628;2023-02-20T00:43:55;21.40;52.60
40738;DHT22;54759;48.094;-1.628;2023-02-20T00:46:56;21.00;52.60
40738;DHT22;54759;48.094;-1.628;2023-02-20T00:49:58;20.80;52.30
40738;DHT22;54759;48.094;-1.628;2023-02-20T00:52:59;20.70;52.40
40738;DHT22;54759;48.094;-1.628;2023-02-20T00:56:00;20.50;52.30
40738;DHT22;54759;48.094;-1.628;2023-02-20T00:59:02;20.80;52.00
40738;DHT22;54759;48.094;-1.628;2023-02-20T01:02:03;20.80;52.50
40738;DHT22;54759;48.094;-1.628;2023-02-20T01:05:05;20.90;52.20
40738;DHT22;54759;48.094;-1.628;2023-02-20T01:08:06;20.50;52.40
40738;DHT22;54759;48.094;-1.628;2023-02-20T01:11:08;20.70;51.90
40738;DHT22;54759;48.094;-1.628;2023-02-20T01:14:10;21.20;52.80
40738;DHT22;54759;48.094;-1.628;2023-02-20T01:17:12;20.80;52.70
40738;DHT22;54759;48.094;-1.628;2023-02-20T01:20:13;20.50;52.50
40738;DHT22;54759;48.094;-1.628;2023-02-20T01:23:15;20.50;52.30
40738;DHT22;54759;48.094;-1.628;2023-02-20T01:26:16;20.40;52.30
40738;DHT22;54759;48.094;-1.628;2023-02-20T01:29:18;20.60;52.40
40738;DHT22;54759;48.094;-1.628;2023-02-20T01:32:19;20.40;52.40
40738;DHT22;54759;48.094;-1.628;2023-02-20T01:35:21;20.70;52.50
40738;DHT22;54759;48.094;-1.628;2023-02-20T01:38:22;20.40;52.60
40738;DHT22;54759;48.094;-1.628;2023-02-20T01:41:23;20.60;52.50
40738;DHT22;54759;48.094;-1.628;2023-02-20T01:44:26;21.10;52.60
40738;DHT22;54759;48.094;-1.628;2023-02-20T01:47:28;20.50;52.30
40738;DHT22;54759;48.094;-1.628;2023-02-20T01:50:32;20.30;52.30
40738;DHT22;54759;48.094;-1.628;2023-02-20T01:53:36;20.60;52.30
40738;DHT22;54759;48.094;-1.628;2023-02-20T01:56:38;20.90;52.30
40738;DHT22;54759;48.094;-1.628;2023-02-20T01:59:40;20.40;52.10
40738;DHT22;54759;48.094;-1.628;2023-02-20T02:02:42;20.20;52.10
40738;DHT22;54759;48.094;-1.628;2023-02-20T02:05:46;20.30;51.80
40738;DHT22;54759;48.094;-1.628;2023-02-20T02:08:48;20.80;52.20
40738;DHT22;54759;48.094;-1.628;2023-02-20T02:11:49;20.60;51.80
40738;DHT22;54759;48.094;-1.628;2023-02-20T02:14:51;20.80;52.20
40738;DHT22;54759;48.094;-1.628;2023-02-20T02:24:34;20.70;52.20
40738;DHT22;54759;48.094;-1.628;2023-02-20T02:27:49;20.60;52.20
40738;DHT22;54759;48.094;-1.628;2023-02-20T02:30:58;20.60;52.10
40738;DHT22;54759;48.094;-1.628;2023-02-20T02:37:18;20.70;52.00
40738;DHT22;54759;48.094;-1.628;2023-02-20T02:40:25;20.30;51.90
40738;DHT22;54759;48.094;-1.628;2023-02-20T02:43:29;20.40;51.90
40738;DHT22;54759;48.094;-1.628;2023-02-20T02:46:33;20.40;51.80
40738;DHT22;54759;48.094;-1.628;2023-02-20T02:49:42;20.60;51.90
40738;DHT22;54759;48.094;-1.628;2023-02-20T02:52:45;20.40;51.70
40738;DHT22;54759;48.094;-1.628;2023-02-20T02:55:48;20.40;51.90
40738;DHT22;54759;48.094;-1.628;2023-02-20T02:58:50;20.10;51.70
40738;DHT22;54759;48.094;-1.628;2023-02-20T03:01:55;20.50;51.90
40738;DHT22;54759;48.094;-1.628;2023-02-20T03:05:00;20.20;51.70
40738;DHT22;54759;48.094;-1.628;2023-02-20T03:08:03;20.50;51.70
40738;DHT22;54759;48.094;-1.628;2023-02-20T03:11:06;20.40;51.70
40738;DHT22;54759;48.094;-1.628;2023-02-20T03:14:09;20.70;52.50
40738;DHT22;54759;48.094;-1.628;2023-02-20T03:17:28;21.10;52.50
40738;DHT22;54759;48.094;-1.628;2023-02-20T03:20:31;20.30;52.10
40738;DHT22;54759;48.094;-1.628;2023-02-20T03:23:34;20.20;51.80
40738;DHT22;54759;48.094;-1.628;2023-02-20T03:26:38;20.50;52.20
40738;DHT22;54759;48.094;-1.628;2023-02-20T03:29:41;20.20;52.00
40738;DHT22;54759;48.094;-1.628;2023-02-20T03:32:42;20.50;52.30
40738;DHT22;54759;48.094;-1.628;2023-02-20T03:35:58;20.50;52.00
40738;DHT22;54759;48.094;-1.628;2023-02-20T03:39:17;20.20;51.80
40738;DHT22;54759;48.094;-1.628;2023-02-20T03:42:34;20.80;52.20
40738;DHT22;54759;48.094;-1.628;2023-02-20T03:45:58;20.30;51.80
40738;DHT22;54759;48.094;-1.628;2023-02-20T03:49:03;20.20;51.70
40738;DHT22;54759;48.094;-1.628;2023-02-20T03:52:06;20.30;51.90
40738;DHT22;54759;48.094;-1.628;2023-02-20T03:55:11;20.30;51.80
40738;DHT22;54759;48.094;-1.628;2023-02-20T03:58:14;20.60;52.10
40738;DHT22;54759;48.094;-1.628;2023-02-20T04:01:17;20.10;51.70
40738;DHT22;54759;48.094;-1.628;2023-02-20T04:04:21;20.60;52.10
40738;DHT22;54759;48.094;-1.628;2023-02-20T04:07:26;20.10;51.70
40738;DHT22;54759;48.094;-1.628;2023-02-20T04:10:32;20.30;51.40
40738;DHT22;54759;48.094;-1.628;2023-02-20T04:13:34;20.80;52.40
40738;DHT22;54759;48.094;-1.628;2023-02-20T04:16:39;20.30;51.90
40738;DHT22;54759;48.094;-1.628;2023-02-20T04:19:44;20.40;52.00
40738;DHT22;54759;48.094;-1.628;2023-02-20T04:22:47;20.40;52.00
40738;DHT22;54759;48.094;-1.628;2023-02-20T04:25:50;20.10;51.70
40738;DHT22;54759;48.094;-1.628;2023-02-20T04:28:53;20.60;52.10
40738;DHT22;54759;48.094;-1.628;2023-02-20T04:31:55;20.50;51.80
40738;DHT22;54759;48.094;-1.628;2023-02-20T04:34:59;20.20;51.80
40738;DHT22;54759;48.094;-1.628;2023-02-20T04:38:01;20.50;51.90
40738;DHT22;54759;48.094;-1.628;2023-02-20T04:41:03;20.60;51.80
40738;DHT22;54759;48.094;-1.628;2023-02-20T04:44:04;20.80;51.50
40738;DHT22;54759;48.094;-1.628;2023-02-20T04:47:20;20.70;51.70
40738;DHT22;54759;48.094;-1.628;2023-02-20T04:50:22;20.40;51.60
40738;DHT22;54759;48.094;-1.628;2023-02-20T04:53:25;20.60;51.80
40738;DHT22;54759;48.094;-1.628;2023-02-20T04:56:27;20.60;51.80
40738;DHT22;54759;48.094;-1.628;2023-02-20T04:59:29;20.50;51.80
40738;DHT22;54759;48.094;-1.628;2023-02-20T05:02:30;20.10;51.50
40738;DHT22;54759;48.094;-1.628;2023-02-20T05:05:31;20.10;51.70
40738;DHT22;54759;48.094;-1.628;2023-02-20T05:08:33;20.10;51.70
40738;DHT22;54759;48.094;-1.628;2023-02-20T05:11:35;20.20;51.30
40738;DHT22;54759;48.094;-1.628;2023-02-20T05:14:36;20.70;51.50
40738;DHT22;54759;48.094;-1.628;2023-02-20T05:17:37;20.50;52.00
40738;DHT22;54759;48.094;-1.628;2023-02-20T05:20:39;20.10;51.70
40738;DHT22;54759;48.094;-1.628;2023-02-20T05:23:55;20.40;51.80
40738;DHT22;54759;48.094;-1.628;2023-02-20T05:26:57;20.10;51.50
40738;DHT22;54759;48.094;-1.628;2023-02-20T05:29:59;20.50;51.70
40738;DHT22;54759;48.094;-1.628;2023-02-20T05:33:00;20.10;51.40
40738;DHT22;54759;48.094;-1.628;2023-02-20T05:36:02;20.30;51.70
40738;DHT22;54759;48.094;-1.628;2023-02-20T05:39:04;20.30;51.50
40738;DHT22;54759;48.094;-1.628;2023-02-20T05:42:06;20.40;51.50
40738;DHT22;54759;48.094;-1.628;2023-02-20T05:45:08;20.70;51.80
40738;DHT22;54759;48.094;-1.628;2023-02-20T05:48:10;19.90;51.30
40738;DHT22;54759;48.094;-1.628;2023-02-20T05:51:18;20.50;51.40
40738;DHT22;54759;48.094;-1.628;2023-02-20T05:54:19;20.20;51.20
40738;DHT22;54759;48.094;-1.628;2023-02-20T05:57:22;20.10;51.20
40738;DHT22;54759;48.094;-1.628;2023-02-20T06:00:23;20.10;51.40
40738;DHT22;54759;48.094;-1.628;2023-02-20T06:03:25;21.00;51.70
40738;DHT22;54759;48.094;-1.628;2023-02-20T06:06:30;20.40;51.50
40738;DHT22;54759;48.094;-1.628;2023-02-20T06:09:31;20.10;51.00
40738;DHT22;54759;48.094;-1.628;2023-02-20T06:12:34;20.20;50.90
40738;DHT22;54759;48.094;-1.628;2023-02-20T06:15:35;20.50;51.20
40738;DHT22;54759;48.094;-1.628;2023-02-20T06:18:37;20.40;51.20
40738;DHT22;54759;48.094;-1.628;2023-02-20T06:21:43;20.60;51.50
40738;DHT22;54759;48.094;-1.628;2023-02-20T06:24:44;20.30;51.20
40738;DHT22;54759;48.094;-1.628;2023-02-20T06:27:46;20.10;51.30
40738;DHT22;54759;48.094;-1.628;2023-02-20T06:30:48;20.40;51.70
40738;DHT22;54759;48.094;-1.628;2023-02-20T06:33:50;20.00;51.30
40738;DHT22;54759;48.094;-1.628;2023-02-20T06:36:52;20.10;51.20
40738;DHT22;54759;48.094;-1.628;2023-02-20T06:39:53;20.30;51.40
40738;DHT22;54759;48.094;-1.628;2023-02-20T06:42:55;20.30;51.50
40738;DHT22;54759;48.094;-1.628;2023-02-20T06:45:56;20.00;51.20
40738;DHT22;54759;48.094;-1.628;2023-02-20T06:48:57;20.00;51.20
40738;DHT22;54759;48.094;-1.628;2023-02-20T06:51:59;20.80;51.70
40738;DHT22;54759;48.094;-1.628;2023-02-20T06:55:03;20.00;50.70
40738;DHT22;54759;48.094;-1.628;2023-02-20T06:58:05;19.90;51.20
40738;DHT22;54759;48.094;-1.628;2023-02-20T07:01:07;20.10;51.30
40738;DHT22;54759;48.094;-1.628;2023-02-20T07:04:12;20.70;51.30
40738;DHT22;54759;48.094;-1.628;2023-02-20T07:07:15;20.40;51.20
40738;DHT22;54759;48.094;-1.628;2023-02-20T07:10:16;20.20;50.70
40738;DHT22;54759;48.094;-1.628;2023-02-20T07:13:18;20.10;51.20
40738;DHT22;54759;48.094;-1.628;2023-02-20T07:16:19;20.40;51.20
40738;DHT22;54759;48.094;-1.628;2023-02-20T07:19:21;20.30;51.00
40738;DHT22;54759;48.094;-1.628;2023-02-20T07:22:22;20.60;51.20
40738;DHT22;54759;48.094;-1.628;2023-02-20T07:25:24;20.30;50.80
40738;DHT22;54759;48.094;-1.628;2023-02-20T07:28:25;20.50;51.00
40738;DHT22;54759;48.094;-1.628;2023-02-20T07:31:27;20.30;50.60
40738;DHT22;54759;48.094;-1.628;2023-02-20T07:34:28;20.70;51.20
40738;DHT22;54759;48.094;-1.628;2023-02-20T07:37:30;20.60;50.50
40738;DHT22;54759;48.094;-1.628;2023-02-20T07:40:32;20.80;50.50
40738;DHT22;54759;48.094;-1.628;2023-02-20T07:43:34;20.30;50.00
40738;DHT22;54759;48.094;-1.628;2023-02-20T07:46:35;21.10;50.60
40738;DHT22;54759;48.094;-1.628;2023-02-20T07:49:36;20.70;50.40
40738;DHT22;54759;48.094;-1.628;2023-02-20T07:52:38;21.20;50.70
40738;DHT22;54759;48.094;-1.628;2023-02-20T07:55:39;20.40;50.00
40738;DHT22;54759;48.094;-1.628;2023-02-20T07:58:41;21.10;50.60
40738;DHT22;54759;48.094;-1.628;2023-02-20T08:01:42;20.70;50.20
40738;DHT22;54759;48.094;-1.628;2023-02-20T08:04:44;21.10;50.30
40738;DHT22;54759;48.094;-1.628;2023-02-20T08:07:46;20.70;50.10
40738;DHT22;54759;48.094;-1.628;2023-02-20T08:10:47;20.70;49.80
40738;DHT22;54759;48.094;-1.628;2023-02-20T08:13:53;20.80;50.40
40738;DHT22;54759;48.094;-1.628;2023-02-20T08:16:55;21.30;50.70
40738;DHT22;54759;48.094;-1.628;2023-02-20T08:19:56;20.90;50.30
40738;DHT22;54759;48.094;-1.628;2023-02-20T08:22:58;20.90;50.50
40738;DHT22;54759;48.094;-1.628;2023-02-20T08:26:01;20.90;49.90
40738;DHT22;54759;48.094;-1.628;2023-02-20T08:29:03;21.30;50.10
40738;DHT22;54759;48.094;-1.628;2023-02-20T08:32:05;20.50;50.00
40738;DHT22;54759;48.094;-1.628;2023-02-20T08:35:06;21.20;50.10
40738;DHT22;54759;48.094;-1.628;2023-02-20T08:41:18;21.10;49.40
40738;DHT22;54759;48.094;-1.628;2023-02-20T08:44:20;20.60;49.40
40738;DHT22;54759;48.094;-1.628;2023-02-20T08:47:22;21.20;50.20
40738;DHT22;54759;48.094;-1.628;2023-02-20T08:50:23;20.80;49.40
40738;DHT22;54759;48.094;-1.628;2023-02-20T08:53:24;21.00;49.90
40738;DHT22;54759;48.094;-1.628;2023-02-20T08:56:26;21.00;49.60
40738;DHT22;54759;48.094;-1.628;2023-02-20T08:59:30;21.30;50.00
40738;DHT22;54759;48.094;-1.628;2023-02-20T09:02:31;20.70;49.20
40738;DHT22;54759;48.094;-1.628;2023-02-20T09:05:33;21.20;49.40
40738;DHT22;54759;48.094;-1.628;2023-02-20T09:08:34;21.00;49.40
40738;DHT22;54759;48.094;-1.628;2023-02-20T09:11:36;20.90;49.60
40738;DHT22;54759;48.094;-1.628;2023-02-20T09:14:38;21.20;49.90
40738;DHT22;54759;48.094;-1.628;2023-02-20T09:17:39;21.20;49.80
40738;DHT22;54759;48.094;-1.628;2023-02-20T09:20:40;21.30;50.00
40738;DHT22;54759;48.094;-1.628;2023-02-20T09:23:41;21.50;49.90
40738;DHT22;54759;48.094;-1.628;2023-02-20T09:26:43;20.80;49.20
40738;DHT22;54759;48.094;-1.628;2023-02-20T09:29:45;21.00;49.60
40738;DHT22;54759;48.094;-1.628;2023-02-20T09:32:46;21.30;49.60
40738;DHT22;54759;48.094;-1.628;2023-02-20T09:35:48;21.70;49.80
40738;DHT22;54759;48.094;-1.628;2023-02-20T09:38:51;21.20;49.50
40738;DHT22;54759;48.094;-1.628;2023-02-20T09:41:57;21.40;49.50
40738;DHT22;54759;48.094;-1.628;2023-02-20T09:45:03;21.30;49.50
40738;DHT22;54759;48.094;-1.628;2023-02-20T09:48:08;21.60;49.60
40738;DHT22;54759;48.094;-1.628;2023-02-20T09:51:13;21.40;49.50
40738;DHT22;54759;48.094;-1.628;2023-02-20T09:54:16;21.30;49.30
40738;DHT22;54759;48.094;-1.628;2023-02-20T09:57:21;21.40;50.50
40738;DHT22;54759;48.094;-1.628;2023-02-20T10:00:27;21.50;50.50
40738;DHT22;54759;48.094;-1.628;2023-02-20T10:03:31;21.40;50.60
40738;DHT22;54759;48.094;-1.628;2023-02-20T10:06:35;21.90;50.80
40738;DHT22;54759;48.094;-1.628;2023-02-20T10:09:37;21.50;50.50
40738;DHT22;54759;48.094;-1.628;2023-02-20T10:12:40;21.30;50.20
40738;DHT22;54759;48.094;-1.628;2023-02-20T10:15:44;21.40;50.70
40738;DHT22;54759;48.094;-1.628;2023-02-20T10:18:50;21.90;50.60
40738;DHT22;54759;48.094;-1.628;2023-02-20T10:21:56;21.60;50.50
40738;DHT22;54759;48.094;-1.628;2023-02-20T10:25:02;21.90;50.80
40738;DHT22;54759;48.094;-1.628;2023-02-20T10:28:07;21.40;50.40
40738;DHT22;54759;48.094;-1.628;2023-02-20T10:31:12;21.70;50.60
40738;DHT22;54759;48.094;-1.628;2023-02-20T10:34:17;21.60;50.60
40738;DHT22;54759;48.094;-1.628;2023-02-20T10:37:23;22.00;50.60
40738;DHT22;54759;48.094;-1.628;2023-02-20T10:40:26;21.60;50.00
40738;DHT22;54759;48.094;-1.628;2023-02-20T10:43:32;21.70;50.00
40738;DHT22;54759;48.094;-1.628;2023-02-20T10:46:37;21.60;49.70
40738;DHT22;54759;48.094;-1.628;2023-02-20T10:49:50;21.60;49.90
40738;DHT22;54759;48.094;-1.628;2023-02-20T10:52:53;22.20;50.60
40738;DHT22;54759;48.094;-1.628;2023-02-20T10:55:58;21.80;50.20
40738;DHT22;54759;48.094;-1.628;2023-02-20T10:59:01;21.70;50.40
40738;DHT22;54759;48.094;-1.628;2023-02-20T11:02:09;21.80;50.30
40738;DHT22;54759;48.094;-1.628;2023-02-20T11:05:15;21.70;50.30
40738;DHT22;54759;48.094;-1.628;2023-02-20T11:08:18;21.70;50.30
40738;DHT22;54759;48.094;-1.628;2023-02-20T11:11:24;21.60;50.40
40738;DHT22;54759;48.094;-1.628;2023-02-20T11:14:28;22.10;50.90
40738;DHT22;54759;48.094;-1.628;2023-02-20T11:17:42;21.50;50.50
40738;DHT22;54759;48.094;-1.628;2023-02-20T11:20:44;21.60;50.20
40738;DHT22;54759;48.094;-1.628;2023-02-20T11:23:46;21.80;50.40
40738;DHT22;54759;48.094;-1.628;2023-02-20T11:26:47;22.20;50.70
40738;DHT22;54759;48.094;-1.628;2023-02-20T11:29:53;21.70;50.30
40738;DHT22;54759;48.094;-1.628;2023-02-20T11:32:59;22.00;50.50
40738;DHT22;54759;48.094;-1.628;2023-02-20T11:36:08;21.70;50.40
40738;DHT22;54759;48.094;-1.628;2023-02-20T11:39:15;22.00;50.10
40738;DHT22;54759;48.094;-1.628;2023-02-20T11:42:17;21.60;50.40
40738;DHT22;54759;48.094;-1.628;2023-02-20T11:45:21;22.00;50.40
40738;DHT22;54759;48.094;-1.628;2023-02-20T11:48:23;21.80;50.40
40738;DHT22;54759;48.094;-1.628;2023-02-20T11:51:33;22.00;50.60
40738;DHT22;54759;48.094;-1.628;2023-02-20T11:54:35;21.60;50.30
40738;DHT22;54759;48.094;-1.628;2023-02-20T11:57:37;21.90;50.50
40738;DHT22;54759;48.094;-1.628;2023-02-20T12:00:43;21.50;50.40
40738;DHT22;54759;48.094;-1.628;2023-02-20T12:03:49;22.00;50.40
40738;DHT22;54759;48.094;-1.628;2023-02-20T12:06:54;21.90;50.60
40738;DHT22;54759;48.094;-1.628;2023-02-20T12:09:56;21.80;50.60
40738;DHT22;54759;48.094;-1.628;2023-02-20T12:12:59;21.80;50.40
40738;DHT22;54759;48.094;-1.628;2023-02-20T12:16:03;22.20;51.20
40738;DHT22;54759;48.094;-1.628;2023-02-20T12:19:11;21.90;50.70
40738;DHT22;54759;48.094;-1.628;2023-02-20T12:22:17;21.80;50.10
40738;DHT22;54759;48.094;-1.628;2023-02-20T12:25:21;21.90;50.80
40738;DHT22;54759;48.094;-1.628;2023-02-20T12:28:25;21.80;50.60
40738;DHT22;54759;48.094;-1.628;2023-02-20T12:31:34;21.90;50.80
40738;DHT22;54759;48.094;-1.628;2023-02-20T12:34:42;22.30;51.00
40738;DHT22;54759;48.094;-1.628;2023-02-20T12:37:47;21.70;50.70
40738;DHT22;54759;48.094;-1.628;2023-02-20T12:40:55;22.30;50.80
40738;DHT22;54759;48.094;-1.628;2023-02-20T12:44:06;21.60;50.50
40738;DHT22;54759;48.094;-1.628;2023-02-20T12:47:15;22.20;50.80
40738;DHT22;54759;48.094;-1.628;2023-02-20T12:50:23;22.00;50.60
40738;DHT22;54759;48.094;-1.628;2023-02-20T12:53:30;22.10;50.60
40738;DHT22;54759;48.094;-1.628;2023-02-20T12:56:36;22.50;50.90
40738;DHT22;54759;48.094;-1.628;2023-02-20T12:59:46;22.10;50.40
40738;DHT22;54759;48.094;-1.628;2023-02-20T13:02:50;22.10;50.40
40738;DHT22;54759;48.094;-1.628;2023-02-20T13:05:55;22.40;51.40
40738;DHT22;54759;48.094;-1.628;2023-02-20T13:08:59;22.00;50.80
40738;DHT22;54759;48.094;-1.628;2023-02-20T13:12:02;21.80;50.80
40738;DHT22;54759;48.094;-1.628;2023-02-20T13:15:10;21.50;50.80
40738;DHT22;54759;48.094;-1.628;2023-02-20T13:18:15;22.20;51.10
40738;DHT22;54759;48.094;-1.628;2023-02-20T13:21:21;22.10;50.90
40738;DHT22;54759;48.094;-1.628;2023-02-20T13:24:27;21.80;50.80
40738;DHT22;54759;48.094;-1.628;2023-02-20T13:27:29;22.00;50.80
40738;DHT22;54759;48.094;-1.628;2023-02-20T13:30:31;22.10;50.40
40738;DHT22;54759;48.094;-1.628;2023-02-20T13:33:34;21.90;50.50
40738;DHT22;54759;48.094;-1.628;2023-02-20T13:36:39;22.60;51.20
40738;DHT22;54759;48.094;-1.628;2023-02-20T13:39:41;21.70;50.60
40738;DHT22;54759;48.094;-1.628;2023-02-20T13:42:43;22.20;50.90
40738;DHT22;54759;48.094;-1.628;2023-02-20T13:45:44;22.10;50.60
40738;DHT22;54759;48.094;-1.628;2023-02-20T13:48:46;22.30;51.20
40738;DHT22;54759;48.094;-1.628;2023-02-20T13:51:48;22.20;50.80
40738;DHT22;54759;48.094;-1.628;2023-02-20T13:54:49;22.30;50.80
40738;DHT22;54759;48.094;-1.628;2023-02-20T13:57:51;22.20;50.80
40738;DHT22;54759;48.094;-1.628;2023-02-20T14:00:54;22.70;51.00
40738;DHT22;54759;48.094;-1.628;2023-02-20T14:03:59;21.00;50.60
40738;DHT22;54759;48.094;-1.628;2023-02-20T14:07:01;21.90;50.60
40738;DHT22;54759;48.094;-1.628;2023-02-20T14:10:03;22.40;51.00
40738;DHT22;54759;48.094;-1.628;2023-02-20T14:13:10;22.00;50.90
40738;DHT22;54759;48.094;-1.628;2023-02-20T14:19:28;22.50;50.40
40738;DHT22;54759;48.094;-1.628;2023-02-20T14:22:35;22.50;49.20
40738;DHT22;54759;48.094;-1.628;2023-02-20T14:25:36;22.40;51.50
40738;DHT22;54759;48.094;-1.628;2023-02-20T14:28:42;22.20;50.00
40738;DHT22;54759;48.094;-1.628;2023-02-20T14:31:44;22.60;50.90
40738;DHT22;54759;48.094;-1.628;2023-02-20T14:34:46;22.60;50.70
40738;DHT22;54759;48.094;-1.628;2023-02-20T14:37:54;22.40;50.90
40738;DHT22;54759;48.094;-1.628;2023-02-20T14:40:58;22.30;51.10
40738;DHT22;54759;48.094;-1.628;2023-02-20T14:44:02;22.40;51.20
40738;DHT22;54759;48.094;-1.628;2023-02-20T14:47:05;22.20;51.00
40738;DHT22;54759;48.094;-1.628;2023-02-20T14:50:14;22.30;51.10
40738;DHT22;54759;48.094;-1.628;2023-02-20T14:53:17;22.30;50.90
40738;DHT22;54759;48.094;-1.628;2023-02-20T14:56:20;22.30;50.80
40738;DHT22;54759;48.094;-1.628;2023-02-20T14:59:23;22.20;50.90
40738;DHT22;54759;48.094;-1.628;2023-02-20T15:02:25;21.90;50.70
40738;DHT22;54759;48.094;-1.628;2023-02-20T15:05:39;22.40;51.00
40738;DHT22;54759;48.094;-1.628;2023-02-20T15:08:41;22.50;51.00
40738;DHT22;54759;48.094;-1.628;2023-02-20T15:11:44;22.20;51.20
40738;DHT22;54759;48.094;-1.628;2023-02-20T15:14:51;22.90;51.90
40738;DHT22;54759;48.094;-1.628;2023-02-20T15:18:04;22.10;51.30
40738;DHT22;54759;48.094;-1.628;2023-02-20T15:21:05;22.90;51.50
40738;DHT22;54759;48.094;-1.628;2023-02-20T15:24:12;22.40;51.10
40738;DHT22;54759;48.094;-1.628;2023-02-20T15:27:14;22.90;51.40
40738;DHT22;54759;48.094;-1.628;2023-02-20T15:30:16;22.40;51.20
40738;DHT22;54759;48.094;-1.628;2023-02-20T15:33:18;22.70;51.30
40738;DHT22;54759;48.094;-1.628;2023-02-20T15:36:20;22.50;51.30
40738;DHT22;54759;48.094;-1.628;2023-02-20T15:39:23;23.30;51.60
40738;DHT22;54759;48.094;-1.628;2023-02-20T15:42:24;22.50;51.40
40738;DHT22;54759;48.094;-1.628;2023-02-20T15:45:26;22.50;51.40
40738;DHT22;54759;48.094;-1.628;2023-02-20T15:48:28;22.30;51.10
40738;DHT22;54759;48.094;-1.628;2023-02-20T15:51:29;22.90;50.70
40738;DHT22;54759;48.094;-1.628;2023-02-20T15:54:32;22.30;50.10
40738;DHT22;54759;48.094;-1.628;2023-02-20T15:57:33;22.30;67.80
40738;DHT22;54759;48.094;-1.628;2023-02-20T16:00:35;22.40;59.80
40738;DHT22;54759;48.094;-1.628;2023-02-20T16:03:36;22.80;54.70
40738;DHT22;54759;48.094;-1.628;2023-02-20T16:06:51;22.50;53.50
40738;DHT22;54759;48.094;-1.628;2023-02-20T16:09:53;22.70;53.30
40738;DHT22;54759;48.094;-1.628;2023-02-20T16:12:55;22.40;56.20
40738;DHT22;54759;48.094;-1.628;2023-02-20T16:15:58;22.80;55.00
40738;DHT22;54759;48.094;-1.628;2023-02-20T16:18:59;22.40;54.10
40738;DHT22;54759;48.094;-1.628;2023-02-20T16:22:01;23.00;53.90
40738;DHT22;54759;48.094;-1.628;2023-02-20T16:25:03;22.70;53.40
40738;DHT22;54759;48.094;-1.628;2023-02-20T16:28:05;23.00;53.40
40738;DHT22;54759;48.094;-1.628;2023-02-20T16:31:07;22.50;52.90
40738;DHT22;54759;48.094;-1.628;2023-02-20T16:34:10;22.60;52.80
40738;DHT22;54759;48.094;-1.628;2023-02-20T16:37:23;22.40;52.60
40738;DHT22;54759;48.094;-1.628;2023-02-20T16:40:25;23.00;53.10
40738;DHT22;54759;48.094;-1.628;2023-02-20T16:43:26;22.20;52.80
40738;DHT22;54759;48.094;-1.628;2023-02-20T16:46:27;23.00;53.20
40738;DHT22;54759;48.094;-1.628;2023-02-20T16:49:39;22.50;52.80
40738;DHT22;54759;48.094;-1.628;2023-02-20T16:52:41;22.50;52.90
40738;DHT22;54759;48.094;-1.628;2023-02-20T16:55:43;22.40;52.70
40738;DHT22;54759;48.094;-1.628;2023-02-20T16:58:46;22.70;52.80
40738;DHT22;54759;48.094;-1.628;2023-02-20T17:01:48;22.50;52.60
40738;DHT22;54759;48.094;-1.628;2023-02-20T17:04:51;22.90;53.00
40738;DHT22;54759;48.094;-1.628;2023-02-20T17:07:52;22.60;52.70
40738;DHT22;54759;48.094;-1.628;2023-02-20T17:10:54;22.40;54.90
40738;DHT22;54759;48.094;-1.628;2023-02-20T17:13:56;22.60;54.70
40738;DHT22;54759;48.094;-1.628;2023-02-20T17:16:57;22.20;55.90
40738;DHT22;54759;48.094;-1.628;2023-02-20T17:19:58;22.30;55.10
40738;DHT22;54759;48.094;-1.628;2023-02-20T17:23:00;23.00;54.70
40738;DHT22;54759;48.094;-1.628;2023-02-20T17:26:07;22.10;53.60
40738;DHT22;54759;48.094;-1.628;2023-02-20T17:29:09;22.60;53.70
40738;DHT22;54759;48.094;-1.628;2023-02-20T17:32:10;22.50;53.40
40738;DHT22;54759;48.094;-1.628;2023-02-20T17:35:13;22.40;65.20
40738;DHT22;54759;48.094;-1.628;2023-02-20T17:38:14;22.40;56.60
40738;DHT22;54759;48.094;-1.628;2023-02-20T17:41:16;22.70;55.20
40738;DHT22;54759;48.094;-1.628;2023-02-20T17:44:20;22.20;55.10
40738;DHT22;54759;48.094;-1.628;2023-02-20T17:47:21;22.80;55.10
40738;DHT22;54759;48.094;-1.628;2023-02-20T17:50:23;22.40;54.90
40738;DHT22;54759;48.094;-1.628;2023-02-20T17:53:25;22.60;54.80
40738;DHT22;54759;48.094;-1.628;2023-02-20T17:56:27;22.50;54.90
40738;DHT22;54759;48.094;-1.628;2023-02-20T17:59:28;22.90;55.00
40738;DHT22;54759;48.094;-1.628;2023-02-20T18:02:30;22.10;54.60
40738;DHT22;54759;48.094;-1.628;2023-02-20T18:05:31;22.90;55.00
40738;DHT22;54759;48.094;-1.628;2023-02-20T18:08:32;22.40;54.60
40738;DHT22;54759;48.094;-1.628;2023-02-20T18:11:34;22.20;57.70
40738;DHT22;54759;48.094;-1.628;2023-02-20T18:14:36;21.90;56.20
40738;DHT22;54759;48.094;-1.628;2023-02-20T18:17:37;22.40;55.70
40738;DHT22;54759;48.094;-1.628;2023-02-20T18:20:39;22.20;54.50
40738;DHT22;54759;48.094;-1.628;2023-02-20T18:23:40;22.60;55.60
40738;DHT22;54759;48.094;-1.628;2023-02-20T18:26:42;22.20;55.20
40738;DHT22;54759;48.094;-1.628;2023-02-20T18:29:43;22.50;55.20
40738;DHT22;54759;48.094;-1.628;2023-02-20T18:32:44;21.90;54.40
40738;DHT22;54759;48.094;-1.628;2023-02-20T18:35:46;22.30;55.10
40738;DHT22;54759;48.094;-1.628;2023-02-20T18:38:59;21.90;54.60
40738;DHT22;54759;48.094;-1.628;2023-02-20T18:42:00;22.60;55.10
40738;DHT22;54759;48.094;-1.628;2023-02-20T18:45:02;22.10;54.80
40738;DHT22;54759;48.094;-1.628;2023-02-20T18:48:04;21.90;54.50
40738;DHT22;54759;48.094;-1.628;2023-02-20T18:51:06;21.70;54.40
40738;DHT22;54759;48.094;-1.628;2023-02-20T18:54:08;22.20;54.90
40738;DHT22;54759;48.094;-1.628;2023-02-20T18:57:10;22.10;54.60
40738;DHT22;54759;48.094;-1.628;2023-02-20T19:00:13;22.20;54.50
40738;DHT22;54759;48.094;-1.628;2023-02-20T19:03:15;21.80;54.20
40738;DHT22;54759;48.094;-1.628;2023-02-20T19:06:24;22.20;54.60
40738;DHT22;54759;48.094;-1.628;2023-02-20T19:09:25;22.00;54.30
40738;DHT22;54759;48.094;-1.628;2023-02-20T19:12:27;21.80;67.00
40738;DHT22;54759;48.094;-1.628;2023-02-20T19:15:28;22.00;59.80